Time;durP1;ratioP1;P1;durP2;ratioP2;P2;SDS_P1;SDS_P2;PMS_P1;PMS_P2;Temp;Humidity;BMP_temperature;BMP_pressure;BME280_temperature;BME280_humidity;BME280_pressure;Samples;Min_cycle;Max_cycle;Signal;HPM_P1;HPM_P2
2023/08/07 09:52:48;;;;;;;2.28;0.40;;;;;;;19.95;58.03;100035.88;5502216;31;33900;-60
2023/08/07 09:55:52;;;;;;;1.00;0.35;;;;;;;19.83;53.27;100027.03;5559071;32;20119;-61
2023/08/07 09:58:55;;;;;;;0.75;0.37;;;;;;;19.91;52.73;100035.03;5569202;32;34486;-60
2023/08/07 10:01:59;;;;;;;0.82;0.25;;;;;;;20.05;53.87;100022.91;5568595;32;34425;-60
2023/08/07 10:05:05;;;;;;;1.15;0.40;;;;;;;20.08;53.75;100030.37;5566884;32;33733;-61
2023/08/07 10:08:07;;;;;;;0.20;0.20;;;;;;;20.16;53.83;100045.72;5562871;32;33314;-60
2023/08/07 10:11:10;;;;;;;0.47;0.30;;;;;;;20.11;55.13;100046.78;5568053;32;33701;-60
2023/08/07 10:14:14;;;;;;;8.25;0.75;;;;;;;19.96;51.72;100055.72;5567265;31;33681;-60
2023/08/07 10:17:17;;;;;;;0.85;0.30;;;;;;;19.90;53.27;100036.16;5555219;32;34326;-60
2023/08/07 10:20:21;;;;;;;1.52;0.30;;;;;;;19.95;50.81;100043.25;5569137;32;33573;-59
2023/08/07 10:23:25;;;;;;;0.95;0.35;;;;;;;19.94;51.99;100039.75;5568820;32;34514;-61
2023/08/07 10:26:28;;;;;;;0.98;0.32;;;;;;;19.77;50.78;100048.28;5568640;32;34530;-61
2023/08/07 10:29:33;;;;;;;2.58;0.30;;;;;;;19.78;52.03;100035.47;5568769;32;34320;-61
2023/08/07 10:32:35;;;;;;;0.55;0.30;;;;;;;19.65;50.30;100070.87;5567514;32;34309;-61
2023/08/07 10:35:46;;;;;;;0.62;0.30;;;;;;;19.49;52.57;100051.78;5568458;32;34208;-61
2023/08/07 10:39:06;;;;;;;0.45;0.35;;;;;;;19.45;52.36;100064.50;5568213;32;35828;-61
2023/08/07 10:42:11;;;;;;;4.00;0.60;;;;;;;19.61;51.81;100042.78;5566651;32;33767;-61
2023/08/07 10:45:17;;;;;;;0.63;0.40;;;;;;;19.79;52.74;100050.63;5567856;32;34034;-61
2023/08/07 10:48:21;;;;;;;;;;;;;;;19.84;52.09;100050.37;5567837;32;33680;-61
2023/08/07 10:51:28;;;;;;;0.57;0.40;;;;;;;19.73;53.74;100054.75;5569110;32;34644;-61
2023/08/07 10:54:42;;;;;;;1.40;0.30;;;;;;;19.68;52.62;100072.91;5568598;32;33619;-61
2023/08/07 10:57:46;;;;;;;2.12;0.20;;;;;;;19.38;52.20;100080.63;5568476;32;33683;-61
2023/08/07 11:00:50;;;;;;;1.75;0.40;;;;;;;19.23;53.64;100071.25;5568627;32;34356;-61
2023/08/07 11:03:58;;;;;;;2.03;0.22;;;;;;;19.28;55.32;100077.59;5554820;32;33292;-61
2023/08/07 11:07:01;;;;;;;0.45;0.20;;;;;;;19.12;55.52;100080.28;5568684;32;33581;-61
2023/08/07 11:10:03;;;;;;;1.50;0.40;;;;;;;19.17;55.82;100074.56;5568476;32;33652;-61
2023/08/07 11:13:07;;;;;;;5.55;0.57;;;;;;;19.21;56.43;100092.56;5568382;32;33913;-61
2023/08/07 11:16:11;;;;;;;1.67;0.47;;;;;;;19.21;56.36;100084.44;5567719;32;33764;-61
2023/08/07 11:19:16;;;;;;;0.65;0.43;;;;;;;19.41;55.92;100096.25;5568218;32;34354;-61
2023/08/07 11:22:18;;;;;;;1.55;0.40;;;;;;;19.45;58.09;100086.25;5560028;32;33573;-61
2023/08/07 11:25:21;;;;;;;1.15;0.50;;;;;;;19.51;57.07;100103.09;5551217;32;33624;-61
2023/08/07 11:28:25;;;;;;;2.60;0.80;;;;;;;19.15;56.24;100093.16;5567807;32;33692;-61
2023/08/07 11:31:28;;;;;;;3.00;0.50;;;;;;;19.22;57.64;100091.44;5567560;32;33180;-61
2023/08/07 11:34:30;;;;;;;1.65;0.70;;;;;;;19.29;55.20;100100.94;5568494;32;34128;-59
2023/08/07 11:37:33;;;;;;;0.90;0.40;;;;;;;19.22;55.14;100107.72;5568322;32;33566;-59
2023/08/07 11:40:35;;;;;;;3.28;0.50;;;;;;;19.30;55.63;100094.34;5568235;32;33620;-59
2023/08/07 11:43:39;;;;;;;1.98;1.17;;;;;;;19.13;57.29;100104.34;5568371;32;33581;-60
2023/08/07 11:46:42;;;;;;;2.10;0.60;;;;;;;19.09;57.53;100103.47;5567621;32;33745;-59
2023/08/07 11:49:46;;;;;;;68.70;6.78;;;;;;;18.70;56.88;100113.91;5568023;32;33631;-59
2023/08/07 11:52:48;;;;;;;6.40;0.70;;;;;;;18.50;59.27;100115.63;5559737;32;33158;-59
2023/08/07 11:55:59;;;;;;;2.17;0.65;;;;;;;18.53;58.73;100117.66;5567633;32;33702;-59
2023/08/07 11:59:02;;;;;;;16.90;1.98;;;;;;;18.59;57.59;100128.31;5567900;32;33647;-59
2023/08/07 12:02:11;;;;;;;6.12;1.33;;;;;;;18.45;60.79;100113.16;5568190;32;33556;-59
2023/08/07 12:05:14;;;;;;;35.08;2.50;;;;;;;18.52;59.20;100134.31;5568036;32;34278;-59
2023/08/07 12:08:16;;;;;;;7.20;1.02;;;;;;;18.49;60.17;100121.41;5567266;32;33798;-59
2023/08/07 12:11:20;;;;;;;6.30;0.80;;;;;;;18.47;58.58;100115.53;5566628;32;33189;-58
2023/08/07 12:14:23;;;;;;;1.25;0.60;;;;;;;18.47;57.91;100115.53;5566214;32;33636;-59
2023/08/07 12:17:25;;;;;;;3.33;0.50;;;;;;;18.39;58.25;100111.78;5567066;32;33756;-59
2023/08/07 12:20:27;;;;;;;2.42;0.43;;;;;;;18.39;58.64;100103.66;5565967;32;33454;-59
2023/08/07 12:23:33;;;;;;;17.65;1.85;;;;;;;18.50;59.82;100117.56;5567855;32;34343;-60
2023/08/07 12:26:36;;;;;;;12.77;1.75;;;;;;;18.49;58.62;100113.25;5556832;32;33844;-59
2023/08/07 12:29:38;;;;;;;1.12;0.70;;;;;;;18.64;57.58;100100.91;5567760;32;33714;-59
2023/08/07 12:32:40;;;;;;;0.35;0.30;;;;;;;18.72;57.66;100113.62;5569588;32;33741;-59
2023/08/07 12:35:43;;;;;;;7.30;1.40;;;;;;;18.77;56.24;100130.50;5570072;32;34239;-59
2023/08/07 12:38:46;;;;;;;69.87;7.60;;;;;;;18.77;57.02;100138.63;5567914;32;33702;-61
2023/08/07 12:41:49;;;;;;;2.33;0.55;;;;;;;18.85;56.55;100131.50;5566306;32;32897;-60
2023/08/07 12:45:11;;;;;;;0.40;0.40;;;;;;;18.73;56.51;100137.72;5569504;32;33631;-59
2023/08/07 12:48:14;;;;;;;3.05;0.60;;;;;;;18.58;57.36;100143.03;5569166;32;33828;-59
2023/08/07 12:51:17;;;;;;;6.22;0.73;;;;;;;18.74;57.50;100139.31;5569672;32;33880;-59
2023/08/07 12:54:19;;;;;;;1.17;0.32;;;;;;;18.78;56.04;100142.91;5570173;32;33753;-59
2023/08/07 12:57:21;;;;;;;0.30;0.30;;;;;;;18.78;57.16;100142.13;5569964;32;33677;-59
2023/08/07 13:00:27;;;;;;;1.42;0.40;;;;;;;18.82;57.41;100143.03;5570163;32;33728;-59
2023/08/07 13:03:29;;;;;;;2.45;0.55;;;;;;;18.86;58.97;100143.13;5569865;32;33635;-59
2023/08/07 13:06:32;;;;;;;1.12;0.60;;;;;;;18.92;56.97;100144.50;5569374;32;33850;-59
2023/08/07 13:09:34;;;;;;;4.87;0.68;;;;;;;18.88;59.70;100160.69;5570250;32;33645;-59
2023/08/07 13:12:38;;;;;;;1.83;0.45;;;;;;;18.74;55.11;100157.50;5568886;32;33728;-59
2023/08/07 13:15:40;;;;;;;28.75;2.50;;;;;;;18.72;56.97;100170.66;5569724;32;33738;-59
2023/08/07 13:18:43;;;;;;;1.05;0.55;;;;;;;18.52;57.78;100167.66;5568558;32;34566;-59
2023/08/07 13:21:45;;;;;;;1.73;0.70;;;;;;;18.40;56.87;100175.00;5569018;32;33769;-59
2023/08/07 13:24:47;;;;;;;1.80;0.40;;;;;;;18.41;57.93;100165.72;5570095;32;34424;-59
2023/08/07 13:27:50;;;;;;;2.05;0.50;;;;;;;18.51;59.43;100157.16;5567218;32;33768;-59
2023/08/07 13:30:53;;;;;;;0.65;0.40;;;;;;;18.07;58.73;100170.41;5566897;32;33572;-59
2023/08/07 13:33:56;;;;;;;6.70;0.60;;;;;;;18.15;60.33;100163.34;5568181;32;33641;-59
2023/08/07 13:36:59;;;;;;;1.33;0.50;;;;;;;18.15;59.41;100174.97;5568675;32;34006;-60
2023/08/07 13:40:04;;;;;;;0.77;0.30;;;;;;;18.19;59.64;100184.00;5568877;32;33646;-60
2023/08/07 13:43:09;;;;;;;1.02;0.60;;;;;;;18.35;60.89;100177.94;5568175;32;33776;-60
2023/08/07 13:46:11;;;;;;;1.08;0.50;;;;;;;18.37;58.41;100176.47;5569049;32;33602;-61
2023/08/07 13:49:14;;;;;;;1.30;0.60;;;;;;;18.45;58.44;100186.44;5569025;32;33675;-59
2023/08/07 13:52:16;;;;;;;1.50;0.50;;;;;;;18.47;62.24;100191.53;5568694;32;33815;-59
2023/08/07 13:55:18;;;;;;;1.15;0.50;;;;;;;18.44;58.68;100193.00;5568561;32;33798;-59
2023/08/07 13:58:21;;;;;;;21.60;0.85;;;;;;;18.34;59.77;100185.28;5568429;32;33719;-59
2023/08/07 14:01:23;;;;;;;0.30;0.30;;;;;;;18.47;64.93;100196.94;5568217;32;33629;-59
2023/08/07 14:04:26;;;;;;;0.65;0.50;;;;;;;18.50;60.53;100197.06;5567925;32;34356;-59
2023/08/07 14:07:29;;;;;;;18.08;2.22;;;;;;;18.37;60.37;100200.09;5568911;32;34453;-59
2023/08/07 14:10:31;;;;;;;1.08;0.40;;;;;;;18.49;61.51;100200.91;5569001;32;33607;-59
2023/08/07 14:13:33;;;;;;;0.73;0.50;;;;;;;18.63;60.43;100205.22;5562785;32;34339;-59
2023/08/07 14:16:38;;;;;;;0.55;0.40;;;;;;;18.49;60.00;100219.91;5567820;32;34551;-59
2023/08/07 14:19:41;;;;;;;0.50;0.37;;;;;;;18.46;60.89;100225.22;5568226;32;34234;-59
2023/08/07 14:22:44;;;;;;;2.12;0.50;;;;;;;18.49;60.14;100233.50;5566826;32;34593;-59
2023/08/07 14:25:48;;;;;;;3.75;0.50;;;;;;;18.30;63.33;100230.50;5567723;32;34397;-60
2023/08/07 14:28:51;;;;;;;3.12;0.68;;;;;;;18.21;61.74;100227.06;5568614;32;33605;-59
2023/08/07 14:31:53;;;;;;;1.45;0.60;;;;;;;18.17;62.92;100237.81;5568011;32;34425;-60
2023/08/07 14:34:55;;;;;;;2.25;0.80;;;;;;;18.20;62.39;100237.16;5567996;32;33740;-59
2023/08/07 14:37:58;;;;;;;1.05;0.40;;;;;;;18.35;63.15;100232.22;5567506;32;33851;-59
2023/08/07 14:41:02;;;;;;;0.40;0.40;;;;;;;18.24;62.30;100224.47;5568815;32;34362;-59
2023/08/07 14:44:04;;;;;;;0.50;0.50;;;;;;;18.04;66.08;100222.63;5568269;32;33696;-59
